sensor_id;sensor_type;location;lat;lon;timestamp;P1;durP1;ratioP1;P2;durP2;ratioP2
54271;SDS011;40184;53.362;5.216;2022-10-16T00:01:21;42.70;;;7.95;;
54271;SDS011;40184;53.362;5.216;2022-10-16T00:03:48;32.50;;;7.47;;
54271;SDS011;40184;53.362;5.216;2022-10-16T00:06:15;42.38;;;7.20;;
54271;SDS011;40184;53.362;5.216;2022-10-16T00:08:42;36.65;;;6.78;;
54271;SDS011;40184;53.362;5.216;2022-10-16T00:13:43;36.90;;;7.20;;
54271;SDS011;40184;53.362;5.216;2022-10-16T00:16:10;34.25;;;7.40;;
54271;SDS011;40184;53.362;5.216;2022-10-16T00:18:37;36.53;;;6.63;;
54271;SDS011;40184;53.362;5.216;2022-10-16T00:21:04;31.95;;;6.38;;
54271;SDS011;40184;53.362;5.216;2022-10-16T00:23:31;43.60;;;8.18;;
54271;SDS011;40184;53.362;5.216;2022-10-16T00:25:58;38.22;;;7.20;;
54271;SDS011;40184;53.362;5.216;2022-10-16T00:28:25;33.97;;;5.75;;
54271;SDS011;40184;53.362;5.216;2022-10-16T00:30:51;34.88;;;5.82;;
54271;SDS011;40184;53.362;5.216;2022-10-16T00:33:18;31.85;;;5.95;;
54271;SDS011;40184;53.362;5.216;2022-10-16T00:35:44;30.98;;;5.93;;
54271;SDS011;40184;53.362;5.216;2022-10-16T00:38:10;29.48;;;7.22;;
54271;SDS011;40184;53.362;5.216;2022-10-16T00:40:36;43.65;;;7.88;;
54271;SDS011;40184;53.362;5.216;2022-10-16T00:43:02;33.08;;;5.82;;
54271;SDS011;40184;53.362;5.216;2022-10-16T00:45:29;36.80;;;6.82;;
54271;SDS011;40184;53.362;5.216;2022-10-16T00:47:55;34.10;;;6.00;;
54271;SDS011;40184;53.362;5.216;2022-10-16T00:50:23;28.83;;;5.78;;
54271;SDS011;40184;53.362;5.216;2022-10-16T00:52:56;30.95;;;4.35;;
54271;SDS011;40184;53.362;5.216;2022-10-16T00:55:23;27.05;;;4.82;;
54271;SDS011;40184;53.362;5.216;2022-10-16T00:57:50;34.47;;;8.35;;
54271;SDS011;40184;53.362;5.216;2022-10-16T01:00:21;35.55;;;6.57;;
54271;SDS011;40184;53.362;5.216;2022-10-16T01:02:56;24.63;;;5.30;;
54271;SDS011;40184;53.362;5.216;2022-10-16T01:05:24;33.42;;;5.10;;
54271;SDS011;40184;53.362;5.216;2022-10-16T01:10:55;32.83;;;5.07;;
54271;SDS011;40184;53.362;5.216;2022-10-16T01:15:56;27.45;;;5.50;;
54271;SDS011;40184;53.362;5.216;2022-10-16T01:21:09;35.60;;;6.22;;
54271;SDS011;40184;53.362;5.216;2022-10-16T01:26:32;34.53;;;6.57;;
54271;SDS011;40184;53.362;5.216;2022-10-16T01:29:20;31.33;;;5.72;;
54271;SDS011;40184;53.362;5.216;2022-10-16T01:32:09;28.55;;;5.20;;
54271;SDS011;40184;53.362;5.216;2022-10-16T01:34:47;30.75;;;6.00;;
54271;SDS011;40184;53.362;5.216;2022-10-16T01:37:22;25.83;;;5.47;;
54271;SDS011;40184;53.362;5.216;2022-10-16T01:40:15;33.25;;;5.68;;
54271;SDS011;40184;53.362;5.216;2022-10-16T01:42:46;30.85;;;6.40;;
54271;SDS011;40184;53.362;5.216;2022-10-16T01:45:16;24.17;;;4.63;;
54271;SDS011;40184;53.362;5.216;2022-10-16T01:47:44;25.90;;;5.10;;
54271;SDS011;40184;53.362;5.216;2022-10-16T01:50:11;20.58;;;5.45;;
54271;SDS011;40184;53.362;5.216;2022-10-16T01:52:40;31.08;;;5.57;;
54271;SDS011;40184;53.362;5.216;2022-10-16T01:55:09;26.90;;;5.28;;
54271;SDS011;40184;53.362;5.216;2022-10-16T01:57:39;30.73;;;5.47;;
54271;SDS011;40184;53.362;5.216;2022-10-16T02:00:10;30.02;;;5.65;;
54271;SDS011;40184;53.362;5.216;2022-10-16T02:02:39;42.20;;;6.30;;
54271;SDS011;40184;53.362;5.216;2022-10-16T02:05:12;38.88;;;6.50;;
54271;SDS011;40184;53.362;5.216;2022-10-16T02:07:48;26.95;;;5.53;;
54271;SDS011;40184;53.362;5.216;2022-10-16T02:10:14;37.10;;;5.45;;
54271;SDS011;40184;53.362;5.216;2022-10-16T02:12:41;39.72;;;7.30;;
54271;SDS011;40184;53.362;5.216;2022-10-16T02:15:13;31.90;;;5.70;;
54271;SDS011;40184;53.362;5.216;2022-10-16T02:17:38;37.08;;;6.75;;
54271;SDS011;40184;53.362;5.216;2022-10-16T02:20:04;30.65;;;6.78;;
54271;SDS011;40184;53.362;5.216;2022-10-16T02:22:34;43.60;;;6.50;;
54271;SDS011;40184;53.362;5.216;2022-10-16T02:27:33;46.78;;;8.65;;
54271;SDS011;40184;53.362;5.216;2022-10-16T02:32:49;36.67;;;7.55;;
54271;SDS011;40184;53.362;5.216;2022-10-16T02:35:17;42.22;;;7.28;;
54271;SDS011;40184;53.362;5.216;2022-10-16T02:37:45;24.63;;;5.80;;
54271;SDS011;40184;53.362;5.216;2022-10-16T02:40:12;29.35;;;5.30;;
54271;SDS011;40184;53.362;5.216;2022-10-16T02:42:39;28.55;;;5.10;;
54271;SDS011;40184;53.362;5.216;2022-10-16T02:45:06;35.60;;;5.43;;
54271;SDS011;40184;53.362;5.216;2022-10-16T02:47:33;33.03;;;7.20;;
54271;SDS011;40184;53.362;5.216;2022-10-16T02:49:58;30.02;;;5.95;;
54271;SDS011;40184;53.362;5.216;2022-10-16T02:52:24;43.03;;;8.15;;
54271;SDS011;40184;53.362;5.216;2022-10-16T02:54:50;32.58;;;7.90;;
54271;SDS011;40184;53.362;5.216;2022-10-16T02:57:16;34.80;;;5.75;;
54271;SDS011;40184;53.362;5.216;2022-10-16T02:59:43;25.90;;;4.72;;
54271;SDS011;40184;53.362;5.216;2022-10-16T03:02:08;37.58;;;5.60;;
54271;SDS011;40184;53.362;5.216;2022-10-16T03:04:34;36.35;;;6.38;;
54271;SDS011;40184;53.362;5.216;2022-10-16T03:07:00;28.70;;;6.50;;
54271;SDS011;40184;53.362;5.216;2022-10-16T03:09:25;32.65;;;5.82;;
54271;SDS011;40184;53.362;5.216;2022-10-16T03:11:51;47.13;;;8.10;;
54271;SDS011;40184;53.362;5.216;2022-10-16T03:14:17;30.40;;;5.45;;
54271;SDS011;40184;53.362;5.216;2022-10-16T03:16:42;34.75;;;6.38;;
54271;SDS011;40184;53.362;5.216;2022-10-16T03:19:08;32.47;;;6.93;;
54271;SDS011;40184;53.362;5.216;2022-10-16T03:21:34;34.15;;;5.93;;
54271;SDS011;40184;53.362;5.216;2022-10-16T03:23:59;38.55;;;7.97;;
54271;SDS011;40184;53.362;5.216;2022-10-16T03:26:25;24.88;;;4.97;;
54271;SDS011;40184;53.362;5.216;2022-10-16T03:28:50;40.05;;;5.57;;
54271;SDS011;40184;53.362;5.216;2022-10-16T03:31:16;33.50;;;6.00;;
54271;SDS011;40184;53.362;5.216;2022-10-16T03:33:42;37.47;;;5.50;;
54271;SDS011;40184;53.362;5.216;2022-10-16T03:36:07;37.55;;;5.55;;
54271;SDS011;40184;53.362;5.216;2022-10-16T03:38:33;30.55;;;5.65;;
54271;SDS011;40184;53.362;5.216;2022-10-16T03:40:58;35.88;;;5.72;;
54271;SDS011;40184;53.362;5.216;2022-10-16T03:43:24;26.27;;;4.93;;
54271;SDS011;40184;53.362;5.216;2022-10-16T03:45:50;34.42;;;6.30;;
54271;SDS011;40184;53.362;5.216;2022-10-16T03:48:16;23.58;;;4.35;;
54271;SDS011;40184;53.362;5.216;2022-10-16T03:50:43;33.03;;;5.20;;
54271;SDS011;40184;53.362;5.216;2022-10-16T03:53:08;27.02;;;6.13;;
54271;SDS011;40184;53.362;5.216;2022-10-16T03:55:34;33.90;;;6.18;;
54271;SDS011;40184;53.362;5.216;2022-10-16T03:58:00;25.92;;;5.85;;
54271;SDS011;40184;53.362;5.216;2022-10-16T04:00:26;34.63;;;7.70;;
54271;SDS011;40184;53.362;5.216;2022-10-16T04:02:52;35.85;;;7.28;;
54271;SDS011;40184;53.362;5.216;2022-10-16T04:05:18;31.45;;;6.80;;
54271;SDS011;40184;53.362;5.216;2022-10-16T04:07:43;28.92;;;6.10;;
54271;SDS011;40184;53.362;5.216;2022-10-16T04:10:09;40.22;;;6.68;;
54271;SDS011;40184;53.362;5.216;2022-10-16T04:12:35;35.00;;;7.88;;
54271;SDS011;40184;53.362;5.216;2022-10-16T04:15:00;29.60;;;6.65;;
54271;SDS011;40184;53.362;5.216;2022-10-16T04:17:26;33.17;;;6.75;;
54271;SDS011;40184;53.362;5.216;2022-10-16T04:19:52;25.10;;;5.60;;
54271;SDS011;40184;53.362;5.216;2022-10-16T04:22:17;32.92;;;5.95;;
54271;SDS011;40184;53.362;5.216;2022-10-16T04:24:43;30.02;;;6.55;;
54271;SDS011;40184;53.362;5.216;2022-10-16T04:27:08;32.58;;;6.57;;
54271;SDS011;40184;53.362;5.216;2022-10-16T04:29:34;34.65;;;7.82;;
54271;SDS011;40184;53.362;5.216;2022-10-16T04:32:00;26.48;;;5.65;;
54271;SDS011;40184;53.362;5.216;2022-10-16T04:34:25;34.83;;;7.57;;
54271;SDS011;40184;53.362;5.216;2022-10-16T04:36:51;29.25;;;6.88;;
54271;SDS011;40184;53.362;5.216;2022-10-16T04:39:17;42.25;;;7.60;;
54271;SDS011;40184;53.362;5.216;2022-10-16T04:41:43;27.00;;;6.15;;
54271;SDS011;40184;53.362;5.216;2022-10-16T04:44:08;29.00;;;5.30;;
54271;SDS011;40184;53.362;5.216;2022-10-16T04:46:34;27.23;;;5.10;;
54271;SDS011;40184;53.362;5.216;2022-10-16T04:48:59;24.77;;;5.55;;
54271;SDS011;40184;53.362;5.216;2022-10-16T04:51:25;33.42;;;5.97;;
54271;SDS011;40184;53.362;5.216;2022-10-16T04:53:52;29.52;;;6.55;;
54271;SDS011;40184;53.362;5.216;2022-10-16T04:56:19;47.53;;;9.15;;
54271;SDS011;40184;53.362;5.216;2022-10-16T04:58:46;28.42;;;6.45;;
54271;SDS011;40184;53.362;5.216;2022-10-16T05:01:12;35.50;;;6.80;;
54271;SDS011;40184;53.362;5.216;2022-10-16T05:03:38;36.38;;;6.63;;
54271;SDS011;40184;53.362;5.216;2022-10-16T05:06:05;37.15;;;5.85;;
54271;SDS011;40184;53.362;5.216;2022-10-16T05:08:31;26.48;;;5.95;;
54271;SDS011;40184;53.362;5.216;2022-10-16T05:10:57;38.10;;;8.43;;
54271;SDS011;40184;53.362;5.216;2022-10-16T05:13:22;32.17;;;5.85;;
54271;SDS011;40184;53.362;5.216;2022-10-16T05:15:48;22.67;;;4.38;;
54271;SDS011;40184;53.362;5.216;2022-10-16T05:18:15;34.08;;;6.75;;
54271;SDS011;40184;53.362;5.216;2022-10-16T05:20:41;34.38;;;7.28;;
54271;SDS011;40184;53.362;5.216;2022-10-16T05:23:07;38.42;;;6.13;;
54271;SDS011;40184;53.362;5.216;2022-10-16T05:25:35;34.38;;;6.47;;
54271;SDS011;40184;53.362;5.216;2022-10-16T05:28:01;34.20;;;5.82;;
54271;SDS011;40184;53.362;5.216;2022-10-16T05:30:27;33.13;;;8.48;;
54271;SDS011;40184;53.362;5.216;2022-10-16T05:32:53;36.45;;;6.32;;
54271;SDS011;40184;53.362;5.216;2022-10-16T05:35:19;26.73;;;6.57;;
54271;SDS011;40184;53.362;5.216;2022-10-16T05:37:46;27.33;;;7.40;;
54271;SDS011;40184;53.362;5.216;2022-10-16T05:40:12;27.25;;;6.40;;
54271;SDS011;40184;53.362;5.216;2022-10-16T05:42:38;41.30;;;7.63;;
54271;SDS011;40184;53.362;5.216;2022-10-16T05:45:05;34.58;;;5.72;;
54271;SDS011;40184;53.362;5.216;2022-10-16T05:47:33;27.25;;;6.28;;
54271;SDS011;40184;53.362;5.216;2022-10-16T05:49:58;34.17;;;6.28;;
54271;SDS011;40184;53.362;5.216;2022-10-16T05:52:24;30.70;;;6.30;;
54271;SDS011;40184;53.362;5.216;2022-10-16T05:54:51;40.22;;;7.47;;
54271;SDS011;40184;53.362;5.216;2022-10-16T05:57:17;30.67;;;7.22;;
54271;SDS011;40184;53.362;5.216;2022-10-16T05:59:42;28.35;;;6.60;;
54271;SDS011;40184;53.362;5.216;2022-10-16T06:02:14;32.53;;;7.90;;
54271;SDS011;40184;53.362;5.216;2022-10-16T06:04:40;25.25;;;6.00;;
54271;SDS011;40184;53.362;5.216;2022-10-16T06:07:06;24.17;;;5.47;;
54271;SDS011;40184;53.362;5.216;2022-10-16T06:09:31;34.70;;;7.53;;
54271;SDS011;40184;53.362;5.216;2022-10-16T06:11:57;28.33;;;6.18;;
54271;SDS011;40184;53.362;5.216;2022-10-16T06:14:23;35.75;;;7.43;;
54271;SDS011;40184;53.362;5.216;2022-10-16T06:16:49;25.90;;;6.22;;
54271;SDS011;40184;53.362;5.216;2022-10-16T06:19:14;35.30;;;6.53;;
54271;SDS011;40184;53.362;5.216;2022-10-16T06:21:41;29.33;;;7.10;;
54271;SDS011;40184;53.362;5.216;2022-10-16T06:24:07;34.38;;;7.28;;
54271;SDS011;40184;53.362;5.216;2022-10-16T06:26:33;41.08;;;8.02;;
54271;SDS011;40184;53.362;5.216;2022-10-16T06:28:59;28.75;;;5.43;;
54271;SDS011;40184;53.362;5.216;2022-10-16T06:31:25;27.65;;;5.00;;
54271;SDS011;40184;53.362;5.216;2022-10-16T06:33:54;33.95;;;6.18;;
54271;SDS011;40184;53.362;5.216;2022-10-16T06:36:21;32.83;;;5.97;;
54271;SDS011;40184;53.362;5.216;2022-10-16T06:38:47;36.72;;;6.50;;
54271;SDS011;40184;53.362;5.216;2022-10-16T06:41:14;34.35;;;7.70;;
54271;SDS011;40184;53.362;5.216;2022-10-16T06:43:41;41.47;;;8.30;;
54271;SDS011;40184;53.362;5.216;2022-10-16T06:46:07;43.13;;;7.65;;
54271;SDS011;40184;53.362;5.216;2022-10-16T06:48:35;32.97;;;7.65;;
54271;SDS011;40184;53.362;5.216;2022-10-16T06:51:05;24.92;;;5.75;;
54271;SDS011;40184;53.362;5.216;2022-10-16T06:53:34;24.83;;;5.18;;
54271;SDS011;40184;53.362;5.216;2022-10-16T06:58:56;29.77;;;5.57;;
54271;SDS011;40184;53.362;5.216;2022-10-16T07:01:22;30.27;;;7.00;;
54271;SDS011;40184;53.362;5.216;2022-10-16T07:03:48;29.67;;;6.40;;
54271;SDS011;40184;53.362;5.216;2022-10-16T07:06:15;33.55;;;5.53;;
54271;SDS011;40184;53.362;5.216;2022-10-16T07:08:44;34.05;;;5.70;;
54271;SDS011;40184;53.362;5.216;2022-10-16T07:11:13;31.02;;;7.70;;
54271;SDS011;40184;53.362;5.216;2022-10-16T07:13:41;28.67;;;6.20;;
54271;SDS011;40184;53.362;5.216;2022-10-16T07:16:13;28.75;;;6.38;;
54271;SDS011;40184;53.362;5.216;2022-10-16T07:18:44;32.42;;;6.30;;
54271;SDS011;40184;53.362;5.216;2022-10-16T07:21:18;25.83;;;5.85;;
54271;SDS011;40184;53.362;5.216;2022-10-16T07:23:45;27.80;;;5.43;;
54271;SDS011;40184;53.362;5.216;2022-10-16T07:26:15;30.50;;;6.75;;
54271;SDS011;40184;53.362;5.216;2022-10-16T07:28:41;26.08;;;5.43;;
54271;SDS011;40184;53.362;5.216;2022-10-16T07:31:09;31.73;;;6.28;;
54271;SDS011;40184;53.362;5.216;2022-10-16T07:33:39;32.17;;;8.88;;
54271;SDS011;40184;53.362;5.216;2022-10-16T07:36:07;31.38;;;6.50;;
54271;SDS011;40184;53.362;5.216;2022-10-16T07:38:33;34.75;;;6.60;;
54271;SDS011;40184;53.362;5.216;2022-10-16T07:41:01;35.20;;;7.78;;
54271;SDS011;40184;53.362;5.216;2022-10-16T07:43:28;28.98;;;6.70;;
54271;SDS011;40184;53.362;5.216;2022-10-16T07:45:55;31.88;;;7.15;;
54271;SDS011;40184;53.362;5.216;2022-10-16T07:48:21;31.85;;;9.23;;
54271;SDS011;40184;53.362;5.216;2022-10-16T07:50:48;34.25;;;8.75;;
54271;SDS011;40184;53.362;5.216;2022-10-16T07:53:14;38.13;;;7.47;;
54271;SDS011;40184;53.362;5.216;2022-10-16T07:55:40;34.35;;;7.05;;
54271;SDS011;40184;53.362;5.216;2022-10-16T07:58:06;23.58;;;5.20;;
54271;SDS011;40184;53.362;5.216;2022-10-16T08:00:31;26.17;;;6.25;;
54271;SDS011;40184;53.362;5.216;2022-10-16T08:02:58;22.13;;;4.80;;
54271;SDS011;40184;53.362;5.216;2022-10-16T08:05:30;27.92;;;5.65;;
54271;SDS011;40184;53.362;5.216;2022-10-16T08:07:57;21.40;;;6.85;;
54271;SDS011;40184;53.362;5.216;2022-10-16T08:10:24;21.98;;;4.60;;
54271;SDS011;40184;53.362;5.216;2022-10-16T08:12:51;31.02;;;6.57;;
54271;SDS011;40184;53.362;5.216;2022-10-16T08:15:18;29.08;;;5.38;;
54271;SDS011;40184;53.362;5.216;2022-10-16T08:17:44;31.55;;;5.90;;
54271;SDS011;40184;53.362;5.216;2022-10-16T08:20:18;24.92;;;5.82;;
54271;SDS011;40184;53.362;5.216;2022-10-16T08:22:44;19.33;;;5.15;;
54271;SDS011;40184;53.362;5.216;2022-10-16T08:25:09;24.80;;;6.95;;
54271;SDS011;40184;53.362;5.216;2022-10-16T08:27:35;18.25;;;5.05;;
54271;SDS011;40184;53.362;5.216;2022-10-16T08:30:01;28.10;;;6.05;;
54271;SDS011;40184;53.362;5.216;2022-10-16T08:32:26;27.95;;;5.53;;
54271;SDS011;40184;53.362;5.216;2022-10-16T08:34:52;28.45;;;7.22;;
54271;SDS011;40184;53.362;5.216;2022-10-16T08:37:17;24.85;;;5.40;;
54271;SDS011;40184;53.362;5.216;2022-10-16T08:39:43;28.92;;;5.43;;
54271;SDS011;40184;53.362;5.216;2022-10-16T08:42:32;26.20;;;5.43;;
54271;SDS011;40184;53.362;5.216;2022-10-16T08:50:30;26.52;;;6.10;;
54271;SDS011;40184;53.362;5.216;2022-10-16T08:52:57;34.20;;;7.43;;
54271;SDS011;40184;53.362;5.216;2022-10-16T08:58:14;24.63;;;6.95;;
54271;SDS011;40184;53.362;5.216;2022-10-16T09:00:41;28.10;;;6.88;;
54271;SDS011;40184;53.362;5.216;2022-10-16T09:20:06;19.73;;;4.40;;
54271;SDS011;40184;53.362;5.216;2022-10-16T09:22:35;19.73;;;5.20;;
54271;SDS011;40184;53.362;5.216;2022-10-16T09:25:05;21.15;;;4.57;;
54271;SDS011;40184;53.362;5.216;2022-10-16T09:27:40;20.67;;;5.45;;
54271;SDS011;40184;53.362;5.216;2022-10-16T09:30:11;21.98;;;4.97;;
54271;SDS011;40184;53.362;5.216;2022-10-16T09:32:38;18.95;;;4.45;;
54271;SDS011;40184;53.362;5.216;2022-10-16T09:35:09;22.75;;;5.65;;
54271;SDS011;40184;53.362;5.216;2022-10-16T09:37:42;20.95;;;5.07;;
54271;SDS011;40184;53.362;5.216;2022-10-16T09:40:26;16.92;;;4.18;;
54271;SDS011;40184;53.362;5.216;2022-10-16T09:42:56;16.45;;;4.53;;
54271;SDS011;40184;53.362;5.216;2022-10-16T09:45:28;21.10;;;4.50;;
54271;SDS011;40184;53.362;5.216;2022-10-16T09:47:54;21.42;;;5.32;;
54271;SDS011;40184;53.362;5.216;2022-10-16T09:50:23;28.85;;;5.55;;
54271;SDS011;40184;53.362;5.216;2022-10-16T09:53:02;25.67;;;4.43;;
54271;SDS011;40184;53.362;5.216;2022-10-16T09:55:29;17.67;;;4.03;;
54271;SDS011;40184;53.362;5.216;2022-10-16T09:57:54;23.20;;;4.55;;
54271;SDS011;40184;53.362;5.216;2022-10-16T10:00:21;22.70;;;4.70;;
54271;SDS011;40184;53.362;5.216;2022-10-16T10:02:48;22.75;;;4.93;;
54271;SDS011;40184;53.362;5.216;2022-10-16T10:05:22;17.73;;;4.28;;
54271;SDS011;40184;53.362;5.216;2022-10-16T10:07:57;20.80;;;4.35;;
54271;SDS011;40184;53.362;5.216;2022-10-16T10:10:25;26.40;;;4.63;;
54271;SDS011;40184;53.362;5.216;2022-10-16T10:12:54;26.63;;;4.55;;
54271;SDS011;40184;53.362;5.216;2022-10-16T10:15:20;26.23;;;5.25;;
54271;SDS011;40184;53.362;5.216;2022-10-16T10:17:48;19.25;;;4.10;;
54271;SDS011;40184;53.362;5.216;2022-10-16T10:20:29;16.45;;;3.80;;
54271;SDS011;40184;53.362;5.216;2022-10-16T10:22:58;15.20;;;4.10;;
54271;SDS011;40184;53.362;5.216;2022-10-16T10:34:26;25.40;;;4.57;;
54271;SDS011;40184;53.362;5.216;2022-10-16T10:37:02;13.82;;;3.00;;
54271;SDS011;40184;53.362;5.216;2022-10-16T10:39:42;18.80;;;3.72;;
54271;SDS011;40184;53.362;5.216;2022-10-16T10:47:59;20.83;;;3.47;;
54271;SDS011;40184;53.362;5.216;2022-10-16T11:08:06;12.05;;;3.42;;
54271;SDS011;40184;53.362;5.216;2022-10-16T11:10:58;20.27;;;3.05;;
54271;SDS011;40184;53.362;5.216;2022-10-16T11:16:16;10.68;;;3.03;;
54271;SDS011;40184;53.362;5.216;2022-10-16T11:21:46;17.60;;;4.75;;
54271;SDS011;40184;53.362;5.216;2022-10-16T11:24:21;18.55;;;4.60;;
54271;SDS011;40184;53.362;5.216;2022-10-16T11:27:11;15.98;;;3.40;;
54271;SDS011;40184;53.362;5.216;2022-10-16T11:35:08;12.70;;;3.42;;
54271;SDS011;40184;53.362;5.216;2022-10-16T11:37:42;12.55;;;3.25;;
54271;SDS011;40184;53.362;5.216;2022-10-16T11:40:19;11.20;;;3.47;;
54271;SDS011;40184;53.362;5.216;2022-10-16T11:42:55;14.55;;;3.30;;
54271;SDS011;40184;53.362;5.216;2022-10-16T11:45:35;9.73;;;2.40;;
54271;SDS011;40184;53.362;5.216;2022-10-16T11:48:12;16.02;;;3.47;;
54271;SDS011;40184;53.362;5.216;2022-10-16T11:50:54;11.95;;;3.63;;
54271;SDS011;40184;53.362;5.216;2022-10-16T11:56:05;11.82;;;2.67;;
54271;SDS011;40184;53.362;5.216;2022-10-16T12:01:29;11.50;;;2.78;;
54271;SDS011;40184;53.362;5.216;2022-10-16T12:06:31;10.10;;;2.53;;
54271;SDS011;40184;53.362;5.216;2022-10-16T12:09:02;9.52;;;2.72;;
54271;SDS011;40184;53.362;5.216;2022-10-16T12:16:38;12.63;;;3.10;;
54271;SDS011;40184;53.362;5.216;2022-10-16T12:19:15;14.48;;;2.60;;
54271;SDS011;40184;53.362;5.216;2022-10-16T12:21:42;8.90;;;2.78;;
54271;SDS011;40184;53.362;5.216;2022-10-16T12:24:22;13.52;;;2.47;;
54271;SDS011;40184;53.362;5.216;2022-10-16T12:26:58;8.00;;;2.15;;
54271;SDS011;40184;53.362;5.216;2022-10-16T12:31:59;11.38;;;2.63;;
54271;SDS011;40184;53.362;5.216;2022-10-16T12:39:51;6.25;;;2.50;;
54271;SDS011;40184;53.362;5.216;2022-10-16T12:44:50;10.27;;;2.57;;
54271;SDS011;40184;53.362;5.216;2022-10-16T12:47:20;8.05;;;2.35;;
54271;SDS011;40184;53.362;5.216;2022-10-16T12:49:50;14.30;;;2.45;;
54271;SDS011;40184;53.362;5.216;2022-10-16T12:52:25;10.60;;;2.45;;
54271;SDS011;40184;53.362;5.216;2022-10-16T12:55:00;11.73;;;2.30;;
54271;SDS011;40184;53.362;5.216;2022-10-16T13:03:15;11.05;;;2.42;;
54271;SDS011;40184;53.362;5.216;2022-10-16T13:16:52;8.50;;;2.28;;
54271;SDS011;40184;53.362;5.216;2022-10-16T13:19:30;13.40;;;2.50;;
54271;SDS011;40184;53.362;5.216;2022-10-16T13:22:06;13.20;;;2.80;;
54271;SDS011;40184;53.362;5.216;2022-10-16T13:30:11;10.18;;;2.47;;
54271;SDS011;40184;53.362;5.216;2022-10-16T13:32:46;11.98;;;2.88;;
54271;SDS011;40184;53.362;5.216;2022-10-16T13:35:24;9.63;;;2.35;;
54271;SDS011;40184;53.362;5.216;2022-10-16T13:38:02;17.90;;;3.50;;
54271;SDS011;40184;53.362;5.216;2022-10-16T13:40:48;12.27;;;2.80;;
54271;SDS011;40184;53.362;5.216;2022-10-16T13:43:16;14.43;;;2.97;;
54271;SDS011;40184;53.362;5.216;2022-10-16T13:45:52;8.95;;;2.30;;
54271;SDS011;40184;53.362;5.216;2022-10-16T13:48:29;15.43;;;3.15;;
54271;SDS011;40184;53.362;5.216;2022-10-16T13:51:38;15.73;;;3.33;;
54271;SDS011;40184;53.362;5.216;2022-10-16T13:53:45;13.75;;;2.60;;
54271;SDS011;40184;53.362;5.216;2022-10-16T13:56:15;11.70;;;2.50;;
54271;SDS011;40184;53.362;5.216;2022-10-16T13:58:42;14.45;;;3.67;;
54271;SDS011;40184;53.362;5.216;2022-10-16T14:01:19;13.52;;;2.65;;
54271;SDS011;40184;53.362;5.216;2022-10-16T14:03:49;9.43;;;2.17;;
54271;SDS011;40184;53.362;5.216;2022-10-16T14:06:17;7.55;;;2.28;;
54271;SDS011;40184;53.362;5.216;2022-10-16T14:11:46;10.68;;;2.25;;
54271;SDS011;40184;53.362;5.216;2022-10-16T14:14:16;17.52;;;3.05;;
54271;SDS011;40184;53.362;5.216;2022-10-16T14:16:43;7.97;;;2.03;;
54271;SDS011;40184;53.362;5.216;2022-10-16T14:19:13;13.68;;;2.75;;
54271;SDS011;40184;53.362;5.216;2022-10-16T14:21:48;10.68;;;2.85;;
54271;SDS011;40184;53.362;5.216;2022-10-16T14:24:30;11.95;;;3.45;;
54271;SDS011;40184;53.362;5.216;2022-10-16T14:26:58;10.70;;;2.08;;
54271;SDS011;40184;53.362;5.216;2022-10-16T14:29:25;8.63;;;2.50;;
54271;SDS011;40184;53.362;5.216;2022-10-16T14:34:40;16.98;;;4.40;;
54271;SDS011;40184;53.362;5.216;2022-10-16T14:37:08;12.98;;;2.67;;
54271;SDS011;40184;53.362;5.216;2022-10-16T14:42:14;13.13;;;3.05;;
54271;SDS011;40184;53.362;5.216;2022-10-16T14:44:44;14.23;;;2.80;;
54271;SDS011;40184;53.362;5.216;2022-10-16T14:47:12;10.98;;;2.30;;
54271;SDS011;40184;53.362;5.216;2022-10-16T14:49:41;15.55;;;3.65;;
54271;SDS011;40184;53.362;5.216;2022-10-16T14:52:10;10.50;;;1.98;;
54271;SDS011;40184;53.362;5.216;2022-10-16T14:54:37;15.00;;;2.45;;
54271;SDS011;40184;53.362;5.216;2022-10-16T14:57:03;7.35;;;2.67;;
54271;SDS011;40184;53.362;5.216;2022-10-16T15:01:57;8.85;;;3.30;;
54271;SDS011;40184;53.362;5.216;2022-10-16T15:04:23;15.70;;;2.92;;
54271;SDS011;40184;53.362;5.216;2022-10-16T15:06:49;14.95;;;2.78;;
54271;SDS011;40184;53.362;5.216;2022-10-16T15:09:15;19.80;;;3.97;;
54271;SDS011;40184;53.362;5.216;2022-10-16T15:11:41;13.52;;;2.45;;
54271;SDS011;40184;53.362;5.216;2022-10-16T15:14:11;11.02;;;3.40;;
54271;SDS011;40184;53.362;5.216;2022-10-16T15:16:38;12.70;;;2.20;;
54271;SDS011;40184;53.362;5.216;2022-10-16T15:19:03;14.07;;;3.20;;
54271;SDS011;40184;53.362;5.216;2022-10-16T15:21:30;13.75;;;2.72;;
54271;SDS011;40184;53.362;5.216;2022-10-16T15:23:57;18.35;;;3.67;;
54271;SDS011;40184;53.362;5.216;2022-10-16T15:26:25;17.15;;;2.90;;
54271;SDS011;40184;53.362;5.216;2022-10-16T15:28:51;15.02;;;3.60;;
54271;SDS011;40184;53.362;5.216;2022-10-16T15:31:17;13.13;;;2.88;;
54271;SDS011;40184;53.362;5.216;2022-10-16T15:33:43;15.73;;;2.60;;
54271;SDS011;40184;53.362;5.216;2022-10-16T15:36:12;20.63;;;3.72;;
54271;SDS011;40184;53.362;5.216;2022-10-16T15:38:38;16.95;;;4.45;;
54271;SDS011;40184;53.362;5.216;2022-10-16T15:41:04;16.13;;;3.03;;
54271;SDS011;40184;53.362;5.216;2022-10-16T15:43:30;16.42;;;4.05;;
54271;SDS011;40184;53.362;5.216;2022-10-16T15:46:04;17.65;;;3.70;;
54271;SDS011;40184;53.362;5.216;2022-10-16T15:48:31;21.95;;;4.72;;
54271;SDS011;40184;53.362;5.216;2022-10-16T15:50:58;14.27;;;4.38;;
54271;SDS011;40184;53.362;5.216;2022-10-16T15:53:24;18.75;;;3.60;;
54271;SDS011;40184;53.362;5.216;2022-10-16T15:55:50;18.52;;;4.30;;
54271;SDS011;40184;53.362;5.216;2022-10-16T15:58:16;15.85;;;3.95;;
54271;SDS011;40184;53.362;5.216;2022-10-16T16:00:41;14.43;;;3.03;;
54271;SDS011;40184;53.362;5.216;2022-10-16T16:03:07;17.20;;;3.60;;
54271;SDS011;40184;53.362;5.216;2022-10-16T16:05:32;13.77;;;3.58;;
54271;SDS011;40184;53.362;5.216;2022-10-16T16:08:00;17.85;;;4.25;;
54271;SDS011;40184;53.362;5.216;2022-10-16T16:10:25;19.92;;;3.35;;
54271;SDS011;40184;53.362;5.216;2022-10-16T16:12:51;21.27;;;5.40;;
54271;SDS011;40184;53.362;5.216;2022-10-16T16:15:20;15.32;;;3.72;;
54271;SDS011;40184;53.362;5.216;2022-10-16T16:17:47;11.40;;;3.47;;
54271;SDS011;40184;53.362;5.216;2022-10-16T16:20:13;22.25;;;4.97;;
54271;SDS011;40184;53.362;5.216;2022-10-16T16:22:39;18.60;;;4.70;;
54271;SDS011;40184;53.362;5.216;2022-10-16T16:25:05;30.77;;;5.80;;
54271;SDS011;40184;53.362;5.216;2022-10-16T16:27:31;28.58;;;6.35;;
54271;SDS011;40184;53.362;5.216;2022-10-16T16:29:59;19.60;;;7.07;;
54271;SDS011;40184;53.362;5.216;2022-10-16T16:32:25;24.63;;;8.43;;
54271;SDS011;40184;53.362;5.216;2022-10-16T16:34:51;26.08;;;6.03;;
54271;SDS011;40184;53.362;5.216;2022-10-16T16:37:17;13.73;;;5.22;;
54271;SDS011;40184;53.362;5.216;2022-10-16T16:39:42;17.20;;;4.82;;
54271;SDS011;40184;53.362;5.216;2022-10-16T16:42:08;20.58;;;5.43;;
54271;SDS011;40184;53.362;5.216;2022-10-16T16:44:35;23.83;;;4.75;;
54271;SDS011;40184;53.362;5.216;2022-10-16T16:47:01;26.65;;;5.43;;
54271;SDS011;40184;53.362;5.216;2022-10-16T16:49:27;14.32;;;6.18;;
54271;SDS011;40184;53.362;5.216;2022-10-16T16:51:53;22.33;;;5.93;;
54271;SDS011;40184;53.362;5.216;2022-10-16T16:54:19;22.75;;;7.40;;
54271;SDS011;40184;53.362;5.216;2022-10-16T16:56:45;26.70;;;7.50;;
54271;SDS011;40184;53.362;5.216;2022-10-16T16:59:14;23.45;;;6.03;;
54271;SDS011;40184;53.362;5.216;2022-10-16T17:01:43;22.85;;;6.60;;
54271;SDS011;40184;53.362;5.216;2022-10-16T17:04:09;23.20;;;5.20;;
54271;SDS011;40184;53.362;5.216;2022-10-16T17:06:35;18.70;;;4.97;;
54271;SDS011;40184;53.362;5.216;2022-10-16T17:09:02;14.45;;;4.85;;
54271;SDS011;40184;53.362;5.216;2022-10-16T17:11:29;21.80;;;5.88;;